createdAt,value
2022-12-13T00:00:49.723Z,6.13
2022-12-13T00:02:21.835Z,5.75
2022-12-13T00:03:54.720Z,6.13
2022-12-13T00:05:26.716Z,6.20
2022-12-13T00:06:58.766Z,5.90
2022-12-13T00:08:30.713Z,5.15
2022-12-13T00:10:03.039Z,5.38
2022-12-13T00:11:35.507Z,5.65
2022-12-13T00:13:07.794Z,5.90
2022-12-13T00:14:39.845Z,6.88
2022-12-13T00:16:14.039Z,6.40
2022-12-13T00:17:46.056Z,7.00
2022-12-13T00:19:18.721Z,6.18
2022-12-13T00:20:50.742Z,5.90
2022-12-13T00:22:22.783Z,5.55
2022-12-13T00:25:31.468Z,5.43
2022-12-13T00:27:03.551Z,5.97
2022-12-13T00:28:35.497Z,5.47
2022-12-13T00:30:08.056Z,5.85
2022-12-13T00:33:32.166Z,6.13
2022-12-13T00:35:04.345Z,6.10
2022-12-13T00:36:36.314Z,5.63
2022-12-13T00:38:11.931Z,6.25
2022-12-13T00:39:43.938Z,4.95
2022-12-13T00:41:18.160Z,5.35
2022-12-13T00:42:50.080Z,4.90
2022-12-13T00:44:22.107Z,5.32
2022-12-13T00:45:54.211Z,5.38
2022-12-13T00:47:26.206Z,5.78
2022-12-13T00:49:00.363Z,5.47
2022-12-13T00:50:33.342Z,5.93
2022-12-13T00:52:05.355Z,5.43
2022-12-13T00:53:37.483Z,5.93
2022-12-13T00:55:10.023Z,6.82
2022-12-13T00:56:42.221Z,6.53
2022-12-13T00:58:14.203Z,6.80
2022-12-13T00:59:46.251Z,7.50
2022-12-13T01:01:20.357Z,7.63
2022-12-13T01:02:55.207Z,8.65
2022-12-13T01:04:27.281Z,6.72
2022-12-13T01:06:16.457Z,7.18
2022-12-13T01:07:49.131Z,5.53
2022-12-13T01:09:27.666Z,6.25
2022-12-13T01:10:59.662Z,6.75
2022-12-13T01:12:31.609Z,6.13
2022-12-13T01:14:03.592Z,5.95
2022-12-13T01:15:35.523Z,6.38
2022-12-13T01:17:08.059Z,5.78
2022-12-13T01:18:41.167Z,5.35
2022-12-13T01:20:13.127Z,5.95
2022-12-13T01:21:45.178Z,5.10
2022-12-13T01:23:17.388Z,4.72
2022-12-13T01:24:49.588Z,5.20
2022-12-13T01:26:22.228Z,5.45
2022-12-13T01:27:54.179Z,4.63
2022-12-13T01:29:27.224Z,4.70
2022-12-13T01:31:02.050Z,4.78
2022-12-13T01:32:34.031Z,4.97
2022-12-13T01:34:10.791Z,5.25
2022-12-13T01:35:42.827Z,5.38
2022-12-13T01:38:59.310Z,5.07
2022-12-13T01:40:31.513Z,5.47
2022-12-13T01:42:11.762Z,5.00
2022-12-13T01:43:43.715Z,4.85
2022-12-13T01:45:21.655Z,5.30
2022-12-13T01:46:53.736Z,4.20
2022-12-13T01:48:29.303Z,4.90
2022-12-13T01:50:04.898Z,4.35
2022-12-13T01:51:38.831Z,5.13
2022-12-13T01:53:13.810Z,5.15
2022-12-13T01:54:49.040Z,4.90
2022-12-13T01:56:34.284Z,6.68
2022-12-13T01:58:06.501Z,4.88
2022-12-13T01:59:40.525Z,4.65
2022-12-13T02:01:12.615Z,4.93
2022-12-13T02:02:45.593Z,5.00
2022-12-13T02:04:27.207Z,4.93
2022-12-13T02:06:03.999Z,4.80
2022-12-13T02:07:37.899Z,4.97
2022-12-13T02:09:11.167Z,5.15
2022-12-13T02:10:43.737Z,4.88
2022-12-13T02:12:15.907Z,4.60
2022-12-13T02:13:47.962Z,4.63
2022-12-13T02:15:20.389Z,4.40
2022-12-13T02:17:01.970Z,4.25
2022-12-13T02:18:33.908Z,4.40
2022-12-13T02:20:32.110Z,4.55
2022-12-13T02:22:04.171Z,4.63
2022-12-13T02:24:12.916Z,5.22
2022-12-13T02:26:07.726Z,5.03
2022-12-13T02:28:00.770Z,5.13
2022-12-13T02:29:52.315Z,5.38
2022-12-13T02:31:42.887Z,5.47
2022-12-13T02:33:44.082Z,5.72
2022-12-13T02:35:28.798Z,5.22
2022-12-13T02:37:26.762Z,5.40
2022-12-13T02:39:03.819Z,5.05
2022-12-13T02:40:47.484Z,5.32
2022-12-13T02:42:24.659Z,6.40
2022-12-13T02:44:01.233Z,5.70
2022-12-13T02:45:54.653Z,6.00
2022-12-13T02:47:28.002Z,6.22
2022-12-13T02:49:00.597Z,5.40
2022-12-13T02:50:34.331Z,6.07
2022-12-13T02:52:08.571Z,5.53
2022-12-13T02:53:41.699Z,5.68
2022-12-13T02:55:15.613Z,5.85
2022-12-13T02:56:57.635Z,6.38
2022-12-13T02:58:33.940Z,5.82
2022-12-13T03:00:10.378Z,6.60
2022-12-13T03:02:09.789Z,5.63
2022-12-13T03:03:49.041Z,6.00
2022-12-13T03:05:57.013Z,5.50
2022-12-13T03:07:54.184Z,5.38
2022-12-13T03:09:44.093Z,5.03
2022-12-13T03:11:19.194Z,4.75
2022-12-13T03:13:21.892Z,5.03
2022-12-13T03:15:16.491Z,4.40
2022-12-13T03:16:50.547Z,4.15
2022-12-13T03:18:25.164Z,4.45
2022-12-13T03:19:57.109Z,4.22
2022-12-13T03:21:29.327Z,3.85
2022-12-13T03:23:01.304Z,3.80
2022-12-13T03:24:33.322Z,4.45
2022-12-13T03:26:10.210Z,4.05
2022-12-13T03:27:42.213Z,4.63
2022-12-13T03:29:14.776Z,4.65
2022-12-13T03:30:56.686Z,4.63
2022-12-13T03:32:28.707Z,3.97
2022-12-13T03:34:00.703Z,4.28
2022-12-13T03:35:34.386Z,4.60
2022-12-13T03:37:16.053Z,4.40
2022-12-13T03:38:49.610Z,4.50
2022-12-13T03:41:53.488Z,4.55
2022-12-13T03:43:25.868Z,4.75
2022-12-13T03:44:57.804Z,4.40
2022-12-13T03:46:29.776Z,4.55
2022-12-13T03:48:01.820Z,4.50
2022-12-13T03:49:35.827Z,4.32
2022-12-13T03:51:07.980Z,4.90
2022-12-13T03:52:43.127Z,4.60
2022-12-13T03:54:15.170Z,5.70
2022-12-13T03:55:47.726Z,4.60
2022-12-13T03:57:19.655Z,4.97
2022-12-13T03:58:51.853Z,5.55
2022-12-13T04:00:23.906Z,4.70
2022-12-13T04:01:55.894Z,4.30
2022-12-13T04:03:29.348Z,4.95
2022-12-13T04:05:01.401Z,4.65
2022-12-13T04:06:33.518Z,5.13
2022-12-13T04:08:06.074Z,4.68
2022-12-13T04:09:54.567Z,4.95
2022-12-13T04:11:45.178Z,4.18
2022-12-13T04:13:35.323Z,4.55
2022-12-13T04:15:08.062Z,4.30
2022-12-13T04:16:40.196Z,4.45
2022-12-13T04:18:12.201Z,4.72
2022-12-13T04:19:44.296Z,4.32
2022-12-13T04:21:16.362Z,4.82
2022-12-13T04:22:48.326Z,4.95
2022-12-13T04:24:21.345Z,5.70
2022-12-13T04:26:03.040Z,5.30
2022-12-13T04:27:35.046Z,5.00
2022-12-13T04:29:09.828Z,4.47
2022-12-13T04:30:41.774Z,5.00
2022-12-13T04:32:26.320Z,5.13
2022-12-13T04:33:59.028Z,4.90
2022-12-13T04:35:33.134Z,5.53
2022-12-13T04:37:05.643Z,5.05
2022-12-13T04:38:37.604Z,5.50
2022-12-13T04:40:10.202Z,5.50
2022-12-13T04:41:42.295Z,5.43
2022-12-13T04:43:14.263Z,5.97
2022-12-13T04:44:46.433Z,6.72
2022-12-13T04:46:19.360Z,6.55
2022-12-13T04:47:51.365Z,8.05
2022-12-13T04:49:23.354Z,7.38
2022-12-13T04:50:55.639Z,7.93
2022-12-13T04:52:33.124Z,7.85
2022-12-13T04:54:24.325Z,7.72
2022-12-13T04:55:57.502Z,7.65
2022-12-13T04:57:30.776Z,7.78
2022-12-13T04:59:04.031Z,7.15
2022-12-13T05:00:36.073Z,8.50
2022-12-13T05:02:09.373Z,8.60
2022-12-13T05:03:41.418Z,10.10
2022-12-13T05:06:45.177Z,9.85
2022-12-13T05:08:20.109Z,11.02
2022-12-13T05:09:52.092Z,10.43
2022-12-13T05:11:24.108Z,10.75
2022-12-13T05:12:56.087Z,9.55
2022-12-13T05:14:28.088Z,9.75
2022-12-13T05:16:03.023Z,8.75
2022-12-13T05:17:35.069Z,8.15
2022-12-13T05:19:07.139Z,7.68
2022-12-13T05:20:40.160Z,8.90
2022-12-13T05:22:20.899Z,9.00
2022-12-13T05:23:53.191Z,9.68
2022-12-13T05:25:25.810Z,8.27
2022-12-13T05:26:58.586Z,8.83
2022-12-13T05:28:31.015Z,8.65
2022-12-13T05:30:06.826Z,5.75
2022-12-13T05:31:38.922Z,6.80
2022-12-13T05:33:12.413Z,9.98
2022-12-13T05:36:25.790Z,11.15
2022-12-13T05:37:58.020Z,8.75
2022-12-13T05:39:30.383Z,8.77
2022-12-13T05:41:02.447Z,11.05
2022-12-13T05:42:34.521Z,11.05
2022-12-13T05:44:06.477Z,11.15
2022-12-13T05:45:38.691Z,13.40
2022-12-13T05:47:10.786Z,15.07
2022-12-13T05:48:45.356Z,18.38
2022-12-13T05:50:18.021Z,20.80
2022-12-13T05:51:50.117Z,18.67
2022-12-13T05:53:30.876Z,16.63
2022-12-13T05:55:03.915Z,22.20
2022-12-13T05:56:35.945Z,21.17
2022-12-13T05:58:13.144Z,22.13
2022-12-13T05:59:45.444Z,18.88
2022-12-13T06:01:17.621Z,13.20
2022-12-13T06:02:49.715Z,13.02
2022-12-13T06:04:22.913Z,15.32
2022-12-13T06:07:27.766Z,14.57
2022-12-13T06:09:00.044Z,16.05
2022-12-13T06:10:34.178Z,15.52
2022-12-13T06:12:31.897Z,16.08
2022-12-13T06:14:00.973Z,14.85
2022-12-13T06:15:34.815Z,15.55
2022-12-13T06:17:07.160Z,16.05
2022-12-13T06:18:39.351Z,17.85
2022-12-13T06:20:23.219Z,26.88
2022-12-13T06:21:56.573Z,17.20
2022-12-13T06:23:29.878Z,18.80
2022-12-13T06:25:02.087Z,19.15
2022-12-13T06:26:34.238Z,18.20
2022-12-13T06:28:06.278Z,19.80
2022-12-13T06:29:38.632Z,18.80
2022-12-13T06:31:10.912Z,13.23
2022-12-13T06:32:44.067Z,10.80
2022-12-13T06:35:58.374Z,13.00
2022-12-13T06:39:06.099Z,11.70
2022-12-13T06:40:38.110Z,12.27
2022-12-13T06:42:21.581Z,10.35
2022-12-13T06:43:54.681Z,11.13
2022-12-13T06:45:26.831Z,11.25
2022-12-13T06:47:10.768Z,9.65
2022-12-13T06:48:44.838Z,8.75
2022-12-13T06:50:19.916Z,8.57
2022-12-13T06:51:51.955Z,5.95
2022-12-13T06:53:25.183Z,5.95
2022-12-13T06:54:59.996Z,5.45
2022-12-13T06:56:33.064Z,7.18
2022-12-13T06:58:05.151Z,8.45
2022-12-13T06:59:37.288Z,8.35
2022-12-13T07:01:23.831Z,6.80
2022-12-13T07:02:57.090Z,9.07
2022-12-13T07:04:31.089Z,7.88
2022-12-13T07:06:11.135Z,8.88
2022-12-13T07:07:43.147Z,9.32
2022-12-13T07:09:15.282Z,9.52
2022-12-13T07:10:47.389Z,9.75
2022-12-13T07:12:22.602Z,9.55
2022-12-13T07:13:55.435Z,8.82
2022-12-13T07:15:27.453Z,10.07
2022-12-13T07:17:03.600Z,12.05
2022-12-13T07:18:36.039Z,11.43
2022-12-13T07:20:08.852Z,12.85
2022-12-13T07:21:40.874Z,22.63
2022-12-13T07:23:12.967Z,17.75
2022-12-13T07:24:44.950Z,12.82
2022-12-13T07:26:17.434Z,13.45
2022-12-13T07:28:01.580Z,10.05
2022-12-13T07:29:34.448Z,9.73
2022-12-13T07:31:08.183Z,10.88
2022-12-13T07:32:40.256Z,8.68
2022-12-13T07:34:15.592Z,9.90
2022-12-13T07:35:47.972Z,9.15
2022-12-13T07:37:29.773Z,9.23
2022-12-13T07:39:03.133Z,9.63
2022-12-13T07:40:35.998Z,7.85
2022-12-13T07:42:08.116Z,7.82
2022-12-13T07:43:40.291Z,8.05
2022-12-13T07:45:12.329Z,10.23
2022-12-13T07:46:44.347Z,13.50
2022-12-13T07:48:16.467Z,12.93
2022-12-13T07:49:48.456Z,15.55
2022-12-13T07:51:20.704Z,16.30
2022-12-13T07:52:53.094Z,10.55
2022-12-13T07:54:25.369Z,9.65
2022-12-13T07:55:57.554Z,7.47
2022-12-13T07:57:32.601Z,9.27
2022-12-13T07:59:04.792Z,11.07
2022-12-13T08:00:41.340Z,11.25
2022-12-13T08:02:18.747Z,11.05
2022-12-13T08:03:50.730Z,11.82
2022-12-13T08:05:26.601Z,11.15
2022-12-13T08:06:59.159Z,9.73
2022-12-13T08:08:31.930Z,9.63
2022-12-13T08:10:04.375Z,9.18
2022-12-13T08:11:36.425Z,8.38
2022-12-13T08:13:09.065Z,7.15
2022-12-13T08:14:41.139Z,6.67
2022-12-13T08:16:27.913Z,5.28
2022-12-13T08:18:01.681Z,5.07
2022-12-13T08:19:34.535Z,5.72
2022-12-13T08:21:45.419Z,6.88
2022-12-13T08:23:03.902Z,5.57
2022-12-13T08:24:35.873Z,6.15
2022-12-13T08:26:07.851Z,6.57
2022-12-13T08:27:42.914Z,6.43
2022-12-13T08:29:23.065Z,6.82
2022-12-13T08:31:12.579Z,6.68
2022-12-13T08:32:45.023Z,6.68
2022-12-13T08:34:17.043Z,7.53
2022-12-13T08:35:49.123Z,8.70
2022-12-13T08:37:21.056Z,14.13
2022-12-13T08:38:55.929Z,12.55
2022-12-13T08:40:27.891Z,7.78
2022-12-13T08:42:16.040Z,11.82
2022-12-13T08:43:49.490Z,13.85
2022-12-13T08:45:21.901Z,10.82
2022-12-13T08:46:54.026Z,9.93
2022-12-13T08:48:26.141Z,9.95
2022-12-13T08:50:04.534Z,9.18
2022-12-13T08:51:36.971Z,6.65
2022-12-13T08:53:09.307Z,7.05
2022-12-13T08:54:41.607Z,7.63
2022-12-13T08:56:13.672Z,7.30
2022-12-13T08:57:46.441Z,7.03
2022-12-13T08:59:18.672Z,7.18
2022-12-13T09:00:51.217Z,6.68
2022-12-13T09:02:23.200Z,7.22
2022-12-13T09:03:56.322Z,6.60
2022-12-13T09:05:34.303Z,7.32
2022-12-13T09:07:09.022Z,6.93
2022-12-13T09:08:42.038Z,7.20
2022-12-13T09:10:27.223Z,7.70
2022-12-13T09:12:00.211Z,6.10
2022-12-13T09:13:35.029Z,7.53
2022-12-13T09:15:22.533Z,15.25
2022-12-13T09:16:55.258Z,9.30
2022-12-13T09:18:36.365Z,9.93
2022-12-13T09:22:03.030Z,10.35
2022-12-13T09:23:35.758Z,10.10
2022-12-13T09:25:08.157Z,8.85
2022-12-13T09:26:47.037Z,9.77
2022-12-13T09:28:19.174Z,9.63
2022-12-13T09:29:51.330Z,9.45
2022-12-13T09:31:23.671Z,10.35
2022-12-13T09:32:56.887Z,10.93
2022-12-13T09:34:29.005Z,10.63
2022-12-13T09:36:06.134Z,10.32
2022-12-13T09:37:44.137Z,11.02
2022-12-13T09:39:17.793Z,14.23
2022-12-13T09:40:58.986Z,13.70
2022-12-13T09:44:32.730Z,11.43
2022-12-13T09:46:22.119Z,10.77
2022-12-13T09:48:01.216Z,10.88
2022-12-13T09:49:52.873Z,12.73
2022-12-13T09:51:27.299Z,11.40
2022-12-13T09:53:04.081Z,10.65
2022-12-13T09:54:48.846Z,11.95
2022-12-13T09:56:22.790Z,12.88
2022-12-13T09:57:55.116Z,12.90
2022-12-13T09:59:35.408Z,13.43
2022-12-13T10:01:07.542Z,11.55
2022-12-13T10:02:45.753Z,11.45
2022-12-13T10:04:18.936Z,10.48
2022-12-13T10:06:02.207Z,9.75
2022-12-13T10:07:34.209Z,7.35
2022-12-13T10:09:09.701Z,7.13
2022-12-13T10:10:43.924Z,7.93
2022-12-13T10:14:07.378Z,7.47
2022-12-13T10:15:42.287Z,7.90
2022-12-13T10:17:17.287Z,9.48
2022-12-13T10:18:49.224Z,9.73
2022-12-13T10:20:22.332Z,9.40
2022-12-13T10:21:54.431Z,8.77
2022-12-13T10:23:59.405Z,8.75
2022-12-13T10:26:03.346Z,8.95
2022-12-13T10:27:37.154Z,8.40
2022-12-13T10:29:10.565Z,8.65
2022-12-13T10:30:46.454Z,8.30
2022-12-13T10:32:19.869Z,9.57
2022-12-13T10:33:55.851Z,10.85
2022-12-13T10:35:37.003Z,9.00
2022-12-13T10:37:28.071Z,9.20
2022-12-13T10:39:01.014Z,8.07
2022-12-13T10:40:40.731Z,8.32
2022-12-13T10:42:22.859Z,8.55
2022-12-13T10:44:17.702Z,7.70
2022-12-13T10:45:58.962Z,6.80
2022-12-13T10:47:31.398Z,5.75
2022-12-13T10:49:03.998Z,5.97
2022-12-13T10:50:37.357Z,5.32
2022-12-13T10:52:31.441Z,5.22
2022-12-13T10:55:38.207Z,5.55
2022-12-13T10:57:12.034Z,4.57
2022-12-13T10:58:46.778Z,3.95
2022-12-13T11:00:51.151Z,3.60
2022-12-13T11:02:31.242Z,5.00
2022-12-13T11:04:27.195Z,4.32
2022-12-13T11:06:07.918Z,4.55
2022-12-13T11:07:39.955Z,3.60
2022-12-13T11:09:38.872Z,4.22
2022-12-13T11:11:13.395Z,4.30
2022-12-13T11:12:45.492Z,4.25
2022-12-13T11:14:20.482Z,4.30
2022-12-13T11:16:25.720Z,4.10
2022-12-13T11:18:01.007Z,4.75
2022-12-13T11:19:44.961Z,4.88
2022-12-13T11:21:25.318Z,4.63
2022-12-13T11:23:06.468Z,5.85
2022-12-13T11:24:39.455Z,5.22
2022-12-13T11:26:24.477Z,4.53
2022-12-13T11:28:32.282Z,6.63
2022-12-13T11:30:10.325Z,5.60
2022-12-13T11:32:12.963Z,5.20
2022-12-13T11:34:16.145Z,4.38
2022-12-13T11:36:20.062Z,6.28
2022-12-13T11:38:08.357Z,4.43
2022-12-13T11:39:50.801Z,5.32
2022-12-13T11:41:37.957Z,5.53
2022-12-13T11:43:44.401Z,7.90
2022-12-13T11:45:24.105Z,4.18
2022-12-13T11:46:58.847Z,5.05
2022-12-13T11:48:42.261Z,4.97
2022-12-13T11:50:21.994Z,4.60
2022-12-13T11:52:18.033Z,5.28
2022-12-13T11:55:40.070Z,4.68
2022-12-13T11:57:46.672Z,4.90
2022-12-13T11:59:28.403Z,7.03
2022-12-13T12:01:11.154Z,4.68
2022-12-13T12:02:47.606Z,4.20
2022-12-13T12:04:49.134Z,4.25
2022-12-13T12:06:23.968Z,4.07
2022-12-13T12:08:32.076Z,3.50
2022-12-13T12:10:00.007Z,3.70
2022-12-13T12:11:49.571Z,4.88
2022-12-13T12:13:50.811Z,4.82
2022-12-13T12:15:31.944Z,3.67
2022-12-13T12:17:06.732Z,4.25
2022-12-13T12:18:38.925Z,3.50
2022-12-13T12:20:15.561Z,3.90
2022-12-13T12:22:13.662Z,3.50
2022-12-13T12:24:05.790Z,3.78
2022-12-13T12:25:48.612Z,8.40
2022-12-13T12:27:26.017Z,8.30
2022-12-13T12:29:14.302Z,4.75
2022-12-13T12:31:13.083Z,5.00
2022-12-13T12:32:51.424Z,4.07
2022-12-13T12:34:27.597Z,3.97
2022-12-13T12:36:09.438Z,5.15
2022-12-13T12:37:54.907Z,4.13
2022-12-13T12:42:02.933Z,5.03
2022-12-13T12:43:42.475Z,6.18
2022-12-13T12:45:55.437Z,5.30
2022-12-13T12:49:56.109Z,4.85
2022-12-13T12:51:56.116Z,3.78
2022-12-13T12:53:31.337Z,4.60
2022-12-13T12:55:20.423Z,5.28
2022-12-13T12:56:56.084Z,4.72
2022-12-13T12:58:37.472Z,4.25
2022-12-13T13:00:10.217Z,4.28
2022-12-13T13:01:52.263Z,4.40
2022-12-13T13:03:29.748Z,3.95
2022-12-13T13:05:29.334Z,4.95
2022-12-13T13:07:13.285Z,6.53
2022-12-13T13:09:11.026Z,4.60
2022-12-13T13:10:50.197Z,4.40
2022-12-13T13:12:29.654Z,5.95
2022-12-13T13:14:23.009Z,7.30
2022-12-13T13:15:56.716Z,9.15
2022-12-13T13:17:31.895Z,7.78
2022-12-13T13:19:13.015Z,8.05
2022-12-13T13:20:45.084Z,6.10
2022-12-13T13:22:34.396Z,6.60
2022-12-13T13:24:19.342Z,6.53
2022-12-13T13:27:51.073Z,6.40
2022-12-13T13:29:28.810Z,4.75
2022-12-13T13:31:09.456Z,5.97
2022-12-13T13:32:41.730Z,5.15
2022-12-13T13:34:23.723Z,6.85
2022-12-13T13:35:55.893Z,6.47
2022-12-13T13:37:30.040Z,6.68
2022-12-13T13:39:02.093Z,6.00
2022-12-13T13:40:37.010Z,6.47
2022-12-13T13:42:15.087Z,9.52
2022-12-13T13:43:50.220Z,11.50
2022-12-13T13:45:24.832Z,7.82
2022-12-13T13:47:34.921Z,9.68
2022-12-13T13:49:12.970Z,13.35
2022-12-13T13:50:47.469Z,11.02
2022-12-13T13:52:25.305Z,11.43
2022-12-13T13:54:59.332Z,5.95
2022-12-13T13:57:02.184Z,9.52
2022-12-13T13:59:22.126Z,7.97
2022-12-13T14:01:25.797Z,10.93
2022-12-13T14:03:09.026Z,11.32
2022-12-13T14:05:22.299Z,8.73
2022-12-13T14:07:12.711Z,9.57
2022-12-13T14:08:59.581Z,10.75
2022-12-13T14:10:49.957Z,15.05
2022-12-13T14:12:46.782Z,11.80
2022-12-13T14:14:38.567Z,12.73
2022-12-13T14:16:47.591Z,7.47
2022-12-13T14:18:56.596Z,5.65
2022-12-13T14:20:47.276Z,6.78
2022-12-13T14:22:55.510Z,9.63
2022-12-13T14:24:58.451Z,7.97
2022-12-13T14:27:00.133Z,7.65
2022-12-13T14:28:47.300Z,8.82
2022-12-13T14:30:28.357Z,10.98
2022-12-13T14:32:01.488Z,10.25
2022-12-13T14:33:34.187Z,14.38
2022-12-13T14:35:26.055Z,29.43
2022-12-13T14:37:06.105Z,48.65
2022-12-13T14:38:38.175Z,39.28
2022-12-13T14:40:31.813Z,34.30
2022-12-13T14:42:23.254Z,14.13
2022-12-13T14:43:55.395Z,13.48
2022-12-13T14:45:30.430Z,10.70
2022-12-13T14:47:05.342Z,22.92
2022-12-13T14:48:45.821Z,25.50
2022-12-13T14:50:19.422Z,40.47
2022-12-13T14:53:41.693Z,26.50
2022-12-13T14:55:36.945Z,19.55
2022-12-13T14:57:16.600Z,16.83
2022-12-13T14:59:00.137Z,19.42
2022-12-13T15:00:39.682Z,21.73
2022-12-13T15:02:18.812Z,16.50
2022-12-13T15:04:19.335Z,18.02
2022-12-13T15:06:02.451Z,15.27
2022-12-13T15:07:38.070Z,18.63
2022-12-13T15:09:14.632Z,15.05
2022-12-13T16:20:30.275Z,20.73
2022-12-13T16:22:02.520Z,22.15
2022-12-13T16:23:40.903Z,22.77
2022-12-13T16:25:21.000Z,17.10
2022-12-13T16:26:53.004Z,16.80
2022-12-13T16:28:25.930Z,18.08
2022-12-13T16:29:58.415Z,18.90
2022-12-13T16:31:36.091Z,20.90
2022-12-13T16:33:29.650Z,23.70
2022-12-13T16:35:01.075Z,22.52
2022-12-13T16:36:33.382Z,23.00
2022-12-13T16:38:09.417Z,19.77
2022-12-13T16:39:41.934Z,20.95
2022-12-13T16:41:15.149Z,20.95
2022-12-13T16:42:47.254Z,19.80
2022-12-13T16:44:38.991Z,21.02
2022-12-13T16:47:12.886Z,20.15
2022-12-13T16:48:06.721Z,19.33
2022-12-13T16:49:38.932Z,18.02
2022-12-13T16:51:10.989Z,18.05
2022-12-13T16:52:43.245Z,16.25
2022-12-13T16:55:58.271Z,14.55
2022-12-13T16:57:31.207Z,16.35
2022-12-13T16:59:03.226Z,17.60
2022-12-13T17:00:35.312Z,18.42
2022-12-13T17:02:13.453Z,18.67
2022-12-13T17:03:45.778Z,19.75
2022-12-13T17:05:18.010Z,23.67
2022-12-13T17:06:50.982Z,24.42
2022-12-13T17:08:28.082Z,19.63
2022-12-13T17:10:00.358Z,20.27
2022-12-13T17:11:33.584Z,23.75
2022-12-13T17:13:05.531Z,19.02
2022-12-13T17:14:37.466Z,25.85
2022-12-13T17:16:09.465Z,25.55
2022-12-13T17:17:45.022Z,26.55
2022-12-13T17:19:17.693Z,31.95
2022-12-13T17:20:58.737Z,28.10
2022-12-13T17:22:34.049Z,24.25
2022-12-13T17:24:06.441Z,22.83
2022-12-13T17:25:39.282Z,18.20
2022-12-13T17:27:11.712Z,23.33
2022-12-13T17:28:43.799Z,24.75
2022-12-13T17:30:17.188Z,19.70
2022-12-13T17:31:49.140Z,19.90
2022-12-13T17:33:21.071Z,20.27
2022-12-13T17:34:53.339Z,22.45
2022-12-13T17:36:27.148Z,20.30
2022-12-13T17:37:59.457Z,21.20
2022-12-13T17:39:31.971Z,20.83
2022-12-13T17:41:04.253Z,20.58
2022-12-13T17:42:36.545Z,19.98
2022-12-13T17:44:09.144Z,21.08
2022-12-13T17:45:44.102Z,19.70
2022-12-13T17:47:16.885Z,20.35
2022-12-13T17:48:48.990Z,18.88
2022-12-13T17:50:20.953Z,20.15
2022-12-13T17:51:54.658Z,19.73
2022-12-13T17:53:27.019Z,18.88
2022-12-13T17:55:01.231Z,19.60
2022-12-13T17:56:33.268Z,20.70
2022-12-13T17:59:43.114Z,20.13
2022-12-13T18:01:20.572Z,17.30
2022-12-13T18:02:55.323Z,14.75
2022-12-13T18:04:27.829Z,11.48
2022-12-13T18:06:00.267Z,11.57
2022-12-13T18:07:32.765Z,12.18
2022-12-13T18:09:04.886Z,10.40
2022-12-13T18:10:36.975Z,12.63
2022-12-13T18:12:09.008Z,11.40
2022-12-13T18:13:41.261Z,10.70
2022-12-13T18:15:13.339Z,9.65
2022-12-13T18:16:45.464Z,9.68
2022-12-13T18:18:17.682Z,8.07
2022-12-13T18:19:49.702Z,7.82
2022-12-13T18:21:21.850Z,7.18
2022-12-13T18:22:53.900Z,6.78
2022-12-13T18:24:26.364Z,7.47
2022-12-13T18:26:02.466Z,7.53
2022-12-13T18:27:34.600Z,6.68
2022-12-13T18:29:06.912Z,6.43
2022-12-13T18:30:39.308Z,7.35
2022-12-13T18:32:11.277Z,9.10
2022-12-13T18:33:47.452Z,6.60
2022-12-13T18:35:20.328Z,5.32
2022-12-13T18:36:52.483Z,6.00
2022-12-13T18:38:29.186Z,7.57
2022-12-13T18:40:08.307Z,13.07
2022-12-13T18:41:40.681Z,16.08
2022-12-13T18:43:12.836Z,14.30
2022-12-13T18:44:54.550Z,14.75
2022-12-13T18:46:31.328Z,15.82
2022-12-13T18:48:03.559Z,15.13
2022-12-13T18:49:35.577Z,11.55
2022-12-13T18:51:09.031Z,13.65
2022-12-13T18:52:41.798Z,17.98
2022-12-13T18:54:14.385Z,17.60
2022-12-13T18:55:46.480Z,16.55
2022-12-13T18:57:19.186Z,14.00
2022-12-13T18:58:51.747Z,16.17
2022-12-13T19:00:24.683Z,13.68
2022-12-13T19:01:57.203Z,14.35
2022-12-13T19:05:02.139Z,16.85
2022-12-13T19:06:34.174Z,15.38
2022-12-13T19:08:06.326Z,15.18
2022-12-13T19:09:38.407Z,13.52
2022-12-13T19:11:13.654Z,12.48
2022-12-13T19:12:45.678Z,13.98
2022-12-13T19:14:22.330Z,14.23
2022-12-13T19:16:03.315Z,14.52
2022-12-13T19:17:35.408Z,16.40
2022-12-13T19:19:07.615Z,13.95
2022-12-13T19:20:46.332Z,13.73
2022-12-13T19:22:18.291Z,13.48
2022-12-13T19:23:57.091Z,13.57
2022-12-13T19:25:29.763Z,12.80
2022-12-13T19:27:01.830Z,18.17
2022-12-13T19:28:34.591Z,15.27
2022-12-13T19:30:07.338Z,15.63
2022-12-13T19:31:39.417Z,14.10
2022-12-13T19:33:11.869Z,14.73
2022-12-13T19:34:44.386Z,13.10
2022-12-13T19:36:16.722Z,12.68
2022-12-13T19:37:48.761Z,11.68
2022-12-13T19:39:21.020Z,12.98
2022-12-13T19:40:53.163Z,13.60
2022-12-13T19:42:25.160Z,12.23
2022-12-13T19:43:57.115Z,12.77
2022-12-13T19:45:29.147Z,12.48
2022-12-13T19:47:01.296Z,12.00
2022-12-13T19:48:33.804Z,12.60
2022-12-13T19:50:06.423Z,12.02
2022-12-13T19:51:40.040Z,11.93
2022-12-13T19:53:12.386Z,13.35
2022-12-13T19:54:44.361Z,12.00
2022-12-13T19:56:18.878Z,14.98
2022-12-13T19:57:50.951Z,16.05
2022-12-13T19:59:23.272Z,15.02
2022-12-13T20:01:02.242Z,17.02
2022-12-13T20:02:34.626Z,16.73
2022-12-13T20:04:06.742Z,17.15
2022-12-13T20:05:43.923Z,18.33
2022-12-13T20:07:17.619Z,20.58
2022-12-13T20:08:50.231Z,19.58
2022-12-13T20:10:22.511Z,19.45
2022-12-13T20:11:54.449Z,19.05
2022-12-13T20:13:27.290Z,20.23
2022-12-13T20:15:02.976Z,19.63
2022-12-13T20:16:36.220Z,17.05
2022-12-13T20:18:08.383Z,15.93
2022-12-13T20:19:40.602Z,12.45
2022-12-13T20:21:14.968Z,12.30
2022-12-13T20:22:48.522Z,12.45
2022-12-13T20:26:02.847Z,13.40
2022-12-13T20:27:35.097Z,13.68
2022-12-13T20:29:07.208Z,17.80
2022-12-13T20:30:39.285Z,19.92
2022-12-13T20:32:11.313Z,18.75
2022-12-13T20:33:43.414Z,11.13
2022-12-13T20:35:15.487Z,10.48
2022-12-13T20:36:47.566Z,9.52
2022-12-13T20:38:19.586Z,9.57
2022-12-13T20:39:51.514Z,9.07
2022-12-13T20:41:25.531Z,10.15
2022-12-13T20:42:57.656Z,9.15
2022-12-13T20:44:30.980Z,9.35
2022-12-13T20:46:05.676Z,8.93
2022-12-13T20:47:38.214Z,8.40
2022-12-13T20:49:10.455Z,8.40
2022-12-13T20:50:42.558Z,7.63
2022-12-13T20:52:18.967Z,6.80
2022-12-13T20:53:51.950Z,7.82
2022-12-13T20:55:24.080Z,6.95
2022-12-13T20:56:56.184Z,6.38
2022-12-13T20:58:28.571Z,6.72
2022-12-13T21:00:01.283Z,6.85
2022-12-13T21:01:35.652Z,6.70
2022-12-13T21:03:08.138Z,6.82
2022-12-13T21:04:40.461Z,5.80
2022-12-13T21:06:12.719Z,6.45
2022-12-13T21:08:03.178Z,6.65
2022-12-13T21:09:35.233Z,7.03
2022-12-13T21:11:26.038Z,6.78
2022-12-13T21:12:58.300Z,6.15
2022-12-13T21:14:30.476Z,7.07
2022-12-13T21:16:06.487Z,7.15
2022-12-13T21:17:39.451Z,7.43
2022-12-13T21:19:14.436Z,6.68
2022-12-13T21:20:46.382Z,7.05
2022-12-13T21:22:19.331Z,7.97
2022-12-13T21:23:52.065Z,7.25
2022-12-13T21:25:24.202Z,7.65
2022-12-13T21:26:56.805Z,7.03
2022-12-13T21:28:28.821Z,8.52
2022-12-13T21:30:00.865Z,8.35
2022-12-13T21:31:33.197Z,7.88
2022-12-13T21:33:07.550Z,8.52
2022-12-13T21:34:40.404Z,9.20
2022-12-13T21:36:17.485Z,9.48
2022-12-13T21:37:49.501Z,9.77
2022-12-13T21:39:28.379Z,10.32
2022-12-13T21:41:00.644Z,9.88
2022-12-13T21:42:32.660Z,9.40
2022-12-13T21:44:05.278Z,10.55
2022-12-13T21:45:37.349Z,9.97
2022-12-13T21:47:12.257Z,10.43
2022-12-13T21:48:45.398Z,9.95
2022-12-13T21:50:17.390Z,9.70
2022-12-13T21:51:49.375Z,9.73
2022-12-13T21:53:24.723Z,9.32
2022-12-13T21:55:15.289Z,11.15
2022-12-13T21:57:07.364Z,10.35
2022-12-13T21:58:57.956Z,9.50
2022-12-13T22:00:30.481Z,12.02
2022-12-13T22:02:17.059Z,11.55
2022-12-13T22:03:49.187Z,12.00
2022-12-13T22:05:21.189Z,13.77
2022-12-13T22:06:54.281Z,13.07
2022-12-13T22:08:26.725Z,13.65
2022-12-13T22:10:00.787Z,12.97
2022-12-13T22:11:32.782Z,12.48
2022-12-13T22:13:04.810Z,12.25
2022-12-13T22:14:38.380Z,14.20
2022-12-13T22:16:10.991Z,15.05
2022-12-13T22:17:43.655Z,15.32
2022-12-13T22:19:16.525Z,16.30
2022-12-13T22:20:56.831Z,13.85
2022-12-13T22:22:28.864Z,15.70
2022-12-13T22:24:00.940Z,15.43
2022-12-13T22:25:32.908Z,17.23
2022-12-13T22:27:05.006Z,14.63
2022-12-13T22:28:36.992Z,15.43
2022-12-13T22:30:10.667Z,16.90
2022-12-13T22:31:42.754Z,23.40
2022-12-13T22:33:20.746Z,19.17
2022-12-13T22:34:55.561Z,17.80
2022-12-13T22:36:27.617Z,22.42
2022-12-13T22:38:01.684Z,20.55
2022-12-13T22:39:33.845Z,19.75
2022-12-13T22:41:06.520Z,21.60
2022-12-13T22:42:38.726Z,20.27
2022-12-13T22:44:17.635Z,20.45
2022-12-13T22:45:49.728Z,21.00
2022-12-13T22:47:21.786Z,17.00
2022-12-13T22:48:54.195Z,19.33
2022-12-13T22:50:26.207Z,18.77
2022-12-13T22:51:58.241Z,20.83
2022-12-13T22:53:30.580Z,19.92
2022-12-13T22:55:02.686Z,20.60
2022-12-13T22:56:35.526Z,19.85
2022-12-13T22:58:07.509Z,20.25
2022-12-13T22:59:39.728Z,21.38